Time;durP1;ratioP1;P1;durP2;ratioP2;P2;SDS_P1;SDS_P2;PMS_P1;PMS_P2;Temp;Humidity;BMP_temperature;BMP_pressure;BME280_temperature;BME280_humidity;BME280_pressure;Samples;Min_cycle;Max_cycle;Signal;HPM_P1;HPM_P2
2020/12/07 00:00:48;;;;;;;;;;;13.20;67.60;;;;;;2090153;28;1906;-50
2020/12/07 00:02:07;;;;;;;;;;;13.20;67.80;;;;;;2090018;28;688;-49
2020/12/07 00:03:26;;;;;;;;;;;13.20;67.80;;;;;;2089942;28;1450;-50
2020/12/07 00:04:45;;;;;;;;;;;13.20;68.00;;;;;;2089576;28;722;-50
2020/12/07 00:06:05;;;;;;;;;;;13.20;68.50;;;;;;2089151;28;744;-49
2020/12/07 00:07:26;;;;;;;;;;;13.20;67.80;;;;;;2085870;28;728;-51
2020/12/07 00:08:46;;;;;;;;;;;13.20;68.50;;;;;;2086562;28;734;-50
2020/12/07 00:10:05;;;;;;;;;;;13.20;68.00;;;;;;2086167;28;730;-52
2020/12/07 00:11:24;;;;;;;;;;;13.20;67.60;;;;;;2089780;28;788;-51
2020/12/07 00:12:45;;;;;;;;;;;13.20;68.00;;;;;;2089650;28;1237;-50
2020/12/07 00:14:04;;;;;;;;;;;13.20;67.80;;;;;;2088633;28;1489;-49
2020/12/07 00:15:24;;;;;;;;;;;13.10;67.90;;;;;;2089085;28;1171;-50
2020/12/07 00:16:44;;;;;;;;;;;13.10;68.00;;;;;;2089924;28;709;-49
2020/12/07 00:18:03;;;;;;;;;;;13.20;68.00;;;;;;2080919;28;718;-51
2020/12/07 00:19:22;;;;;;;;;;;13.10;67.90;;;;;;2082851;28;709;-51
2020/12/07 00:20:41;;;;;;;;;;;13.10;68.60;;;;;;2089583;28;1906;-52
2020/12/07 00:22:00;;;;;;;;;;;13.10;67.90;;;;;;2089963;28;757;-51
2020/12/07 00:23:20;;;;;;;;;;;13.10;67.90;;;;;;2089755;28;1439;-49
2020/12/07 00:24:39;;;;;;;;;;;13.10;67.90;;;;;;2089642;28;741;-49
2020/12/07 00:25:58;;;;;;;;;;;13.10;67.90;;;;;;2089929;28;709;-51
2020/12/07 00:27:24;;;;;;;;;;;13.10;67.90;;;;;;2090019;28;801;-49
2020/12/07 00:28:43;;;;;;;;;;;13.10;67.90;;;;;;2088868;28;1356;-51
2020/12/07 00:30:03;;;;;;;;;;;13.10;67.90;;;;;;2084637;28;719;-48
2020/12/07 00:31:22;;;;;;;;;;;13.10;68.70;;;;;;2079505;28;736;-49
2020/12/07 00:32:41;;;;;;;;;;;13.10;68.60;;;;;;2081500;28;717;-50
2020/12/07 00:34:01;;;;;;;;;;;13.10;67.90;;;;;;2081614;28;1345;-48
2020/12/07 00:35:20;;;;;;;;;;;13.10;68.20;;;;;;2080900;28;766;-49
2020/12/07 00:36:41;;;;;;;;;;;13.10;68.10;;;;;;2072810;28;699;-49
2020/12/07 00:38:01;;;;;;;;;;;13.10;68.10;;;;;;2078398;28;737;-50
2020/12/07 00:39:20;;;;;;;;;;;13.00;68.00;;;;;;2081630;28;716;-49
2020/12/07 00:40:39;;;;;;;;;;;13.10;68.20;;;;;;2080977;28;1976;-50
2020/12/07 00:41:58;;;;;;;;;;;13.00;68.00;;;;;;2081007;28;731;-51
2020/12/07 00:43:18;;;;;;;;;;;13.10;68.00;;;;;;2079567;28;1413;-50
2020/12/07 00:44:37;;;;;;;;;;;13.00;68.60;;;;;;2076286;28;886;-49
2020/12/07 00:45:56;;;;;;;;;;;13.00;68.20;;;;;;2089481;28;726;-51
2020/12/07 00:47:16;;;;;;;;;;;13.00;68.70;;;;;;2080871;28;767;-50
2020/12/07 00:48:35;;;;;;;;;;;13.10;68.10;;;;;;2086018;28;929;-49
2020/12/07 00:49:55;;;;;;;;;;;13.00;67.90;;;;;;2089075;28;723;-50
2020/12/07 00:51:14;;;;;;;;;;;13.00;68.10;;;;;;2086052;28;736;-52
2020/12/07 00:52:33;;;;;;;;;;;13.00;67.80;;;;;;2085838;28;725;-50
2020/12/07 00:53:53;;;;;;;;;;;13.00;68.00;;;;;;2085573;28;1484;-51
2020/12/07 00:55:12;;;;;;;;;;;13.00;68.10;;;;;;2085500;28;695;-50
2020/12/07 00:56:31;;;;;;;;;;;13.00;68.00;;;;;;2085855;28;708;-49
2020/12/07 00:57:51;;;;;;;;;;;13.00;68.10;;;;;;2088952;28;1009;-51
2020/12/07 00:59:11;;;;;;;;;;;13.00;68.20;;;;;;2089492;28;699;-50
2020/12/07 01:00:30;;;;;;;;;;;13.00;68.30;;;;;;2089077;28;753;-49
2020/12/07 01:01:50;;;;;;;;;;;13.00;68.20;;;;;;2086075;28;728;-49
2020/12/07 01:03:09;;;;;;;;;;;13.00;68.20;;;;;;2086047;28;1313;-49
2020/12/07 01:04:28;;;;;;;;;;;13.00;68.40;;;;;;2085728;28;810;-50
2020/12/07 01:05:51;;;;;;;;;;;13.00;68.30;;;;;;2086222;28;801;-50
2020/12/07 01:07:11;;;;;;;;;;;13.00;68.40;;;;;;2085865;28;757;-49
2020/12/07 01:08:32;;;;;;;;;;;13.00;68.40;;;;;;2086016;28;775;-49
2020/12/07 01:09:51;;;;;;;;;;;13.00;68.30;;;;;;2089316;28;719;-52
2020/12/07 01:11:10;;;;;;;;;;;12.90;68.30;;;;;;2088677;28;1671;-48
2020/12/07 01:12:30;;;;;;;;;;;12.90;68.40;;;;;;2089368;28;726;-50
2020/12/07 01:13:49;;;;;;;;;;;12.90;69.10;;;;;;2088914;28;1310;-49
2020/12/07 01:15:10;;;;;;;;;;;13.00;69.10;;;;;;2085202;28;746;-49
2020/12/07 01:16:30;;;;;;;;;;;12.90;68.40;;;;;;2081873;28;965;-50
2020/12/07 01:17:49;;;;;;;;;;;12.90;68.40;;;;;;2087764;28;1033;-50
2020/12/07 01:19:08;;;;;;;;;;;13.00;68.40;;;;;;2089586;28;731;-49
2020/12/07 01:20:28;;;;;;;;;;;12.90;68.30;;;;;;2080829;28;761;-51
2020/12/07 01:21:48;;;;;;;;;;;12.90;68.30;;;;;;2082417;28;728;-49
2020/12/07 01:23:07;;;;;;;;;;;12.90;68.10;;;;;;2085708;28;709;-50
2020/12/07 01:24:26;;;;;;;;;;;12.90;68.30;;;;;;2089452;28;733;-49
2020/12/07 01:25:47;;;;;;;;;;;12.90;68.50;;;;;;2089555;28;803;-50
2020/12/07 01:27:06;;;;;;;;;;;12.90;69.20;;;;;;2088476;28;757;-50
2020/12/07 01:28:25;;;;;;;;;;;12.90;68.50;;;;;;2085268;28;706;-48
2020/12/07 01:29:46;;;;;;;;;;;12.90;68.50;;;;;;2085741;28;723;-49
2020/12/07 01:31:05;;;;;;;;;;;12.90;68.50;;;;;;2089179;28;705;-49
2020/12/07 01:32:25;;;;;;;;;;;12.90;68.20;;;;;;2089452;28;727;-49
2020/12/07 01:33:45;;;;;;;;;;;12.90;68.50;;;;;;2089121;28;1333;-50
2020/12/07 01:35:04;;;;;;;;;;;12.90;68.50;;;;;;2080104;28;766;-51
2020/12/07 01:36:24;;;;;;;;;;;12.90;68.50;;;;;;2085323;28;727;-50
2020/12/07 01:37:43;;;;;;;;;;;12.90;68.40;;;;;;2085578;28;688;-49
2020/12/07 01:39:05;;;;;;;;;;;12.90;68.50;;;;;;2085784;28;712;-50
2020/12/07 01:40:26;;;;;;;;;;;12.90;68.60;;;;;;2085722;28;738;-51
2020/12/07 01:41:45;;;;;;;;;;;12.90;68.70;;;;;;2089099;28;842;-48
2020/12/07 01:43:07;;;;;;;;;;;12.80;68.20;;;;;;2088651;28;796;-49
2020/12/07 01:44:27;;;;;;;;;;;12.90;68.40;;;;;;2085357;28;678;-49
2020/12/07 01:45:46;;;;;;;;;;;12.80;68.30;;;;;;2089277;28;715;-51
2020/12/07 01:47:27;;;;;;;;;;;12.80;68.50;;;;;;2089354;28;1000;-48
2020/12/07 01:48:52;;;;;;;;;;;12.80;68.60;;;;;;2080766;28;780;-50
2020/12/07 01:50:11;;;;;;;;;;;12.90;68.80;;;;;;2080104;28;731;-50
2020/12/07 01:51:32;;;;;;;;;;;12.80;68.60;;;;;;2077798;28;748;-47
2020/12/07 01:52:52;;;;;;;;;;;12.80;68.40;;;;;;2077558;28;725;-50
2020/12/07 01:54:11;;;;;;;;;;;12.80;69.20;;;;;;2085480;28;863;-49
2020/12/07 01:55:33;;;;;;;;;;;12.80;68.50;;;;;;2080032;28;1110;-51
2020/12/07 01:56:53;;;;;;;;;;;12.80;68.50;;;;;;2080559;28;772;-49
2020/12/07 01:58:12;;;;;;;;;;;12.80;68.60;;;;;;2077093;28;746;-50
2020/12/07 01:59:32;;;;;;;;;;;12.90;68.50;;;;;;2077470;28;740;-51
2020/12/07 02:00:51;;;;;;;;;;;12.80;68.60;;;;;;2077033;28;1910;-49
2020/12/07 02:02:10;;;;;;;;;;;12.80;68.60;;;;;;2080844;28;1045;-49
2020/12/07 02:03:30;;;;;;;;;;;12.80;68.60;;;;;;2080519;28;1438;-49
2020/12/07 02:04:49;;;;;;;;;;;12.80;68.60;;;;;;2076798;28;706;-50
2020/12/07 02:06:09;;;;;;;;;;;12.80;68.70;;;;;;2069056;28;754;-50
2020/12/07 02:07:28;;;;;;;;;;;12.80;69.50;;;;;;2077505;28;730;-50
2020/12/07 02:08:50;;;;;;;;;;;12.80;68.80;;;;;;2079929;28;763;-50
2020/12/07 02:10:11;;;;;;;;;;;12.80;68.80;;;;;;2088615;28;1429;-50
2020/12/07 02:11:35;;;;;;;;;;;12.80;68.80;;;;;;2088171;28;1486;-50
2020/12/07 02:12:55;;;;;;;;;;;12.80;69.30;;;;;;2090011;28;1173;-49
2020/12/07 02:14:14;;;;;;;;;;;12.80;69.40;;;;;;2088772;28;1013;-49
2020/12/07 02:15:34;;;;;;;;;;;12.80;68.80;;;;;;2081562;28;747;-49
2020/12/07 02:16:53;;;;;;;;;;;12.80;68.80;;;;;;2078817;28;1004;-50
2020/12/07 02:18:12;;;;;;;;;;;12.80;68.90;;;;;;2080213;28;1013;-50
2020/12/07 02:19:33;;;;;;;;;;;12.80;68.80;;;;;;2081823;28;781;-50
2020/12/07 02:20:52;;;;;;;;;;;12.80;68.70;;;;;;2081952;28;1911;-50
2020/12/07 02:22:31;;;;;;;;;;;12.70;68.70;;;;;;2082438;28;786;-49
2020/12/07 02:23:59;;;;;;;;;;;12.70;68.70;;;;;;2090239;28;1459;-54
2020/12/07 02:25:21;;;;;;;;;;;12.80;68.70;;;;;;2073419;28;793;-50
2020/12/07 02:26:40;;;;;;;;;;;12.70;68.60;;;;;;2076021;28;764;-49
2020/12/07 02:27:59;;;;;;;;;;;12.70;68.70;;;;;;2078664;28;769;-52
2020/12/07 02:29:18;;;;;;;;;;;12.70;69.50;;;;;;2078906;28;726;-49
2020/12/07 02:30:45;;;;;;;;;;;12.70;69.40;;;;;;2079468;28;775;-51
2020/12/07 02:32:10;;;;;;;;;;;12.70;68.80;;;;;;2082368;28;724;-48
2020/12/07 02:33:30;;;;;;;;;;;12.70;68.80;;;;;;2073699;28;1346;-49
2020/12/07 02:34:50;;;;;;;;;;;12.70;68.90;;;;;;2080791;28;1306;-49
2020/12/07 02:36:12;;;;;;;;;;;12.70;68.60;;;;;;2090164;28;751;-51
2020/12/07 02:37:40;;;;;;;;;;;12.70;68.80;;;;;;2089990;28;719;-47
2020/12/07 02:38:59;;;;;;;;;;;12.70;69.50;;;;;;2090080;28;750;-49
2020/12/07 02:40:28;;;;;;;;;;;12.70;68.60;;;;;;2088140;28;758;-47
2020/12/07 02:41:50;;;;;;;;;;;12.70;68.70;;;;;;2083414;28;934;-53
2020/12/07 02:43:09;;;;;;;;;;;12.70;68.90;;;;;;2082055;28;1316;-51
2020/12/07 02:44:29;;;;;;;;;;;12.70;69.10;;;;;;2084863;28;748;-51
2020/12/07 02:45:53;;;;;;;;;;;12.70;68.90;;;;;;2083342;28;743;-48
2020/12/07 02:47:13;;;;;;;;;;;12.70;68.60;;;;;;2075879;28;962;-49
2020/12/07 02:48:32;;;;;;;;;;;12.70;68.80;;;;;;2075336;28;810;-47
2020/12/07 02:49:56;;;;;;;;;;;12.70;68.80;;;;;;2086672;28;704;-48
2020/12/07 02:51:16;;;;;;;;;;;12.70;68.80;;;;;;2079167;28;744;-49
2020/12/07 02:52:35;;;;;;;;;;;12.70;68.80;;;;;;2083393;28;762;-48
2020/12/07 02:53:54;;;;;;;;;;;12.70;68.80;;;;;;2078246;28;1372;-49
2020/12/07 02:55:14;;;;;;;;;;;12.70;68.80;;;;;;2082802;28;737;-49
2020/12/07 02:56:37;;;;;;;;;;;12.60;68.70;;;;;;2078890;28;723;-48
2020/12/07 02:57:57;;;;;;;;;;;12.70;68.80;;;;;;2084104;28;733;-49
2020/12/07 02:59:20;;;;;;;;;;;12.60;69.50;;;;;;2078770;28;737;-49
2020/12/07 03:00:41;;;;;;;;;;;12.60;68.80;;;;;;2084136;28;1898;-49
2020/12/07 03:02:00;;;;;;;;;;;12.60;68.80;;;;;;2085222;28;723;-48
2020/12/07 03:03:19;;;;;;;;;;;12.60;68.90;;;;;;2083285;28;1431;-49
2020/12/07 03:04:38;;;;;;;;;;;12.60;69.00;;;;;;2081592;28;765;-49
2020/12/07 03:05:58;;;;;;;;;;;12.60;68.90;;;;;;2082329;28;758;-49
2020/12/07 03:07:18;;;;;;;;;;;12.60;69.00;;;;;;2083386;28;801;-48
2020/12/07 03:08:42;;;;;;;;;;;12.70;69.10;;;;;;2077931;28;723;-48
2020/12/07 03:10:04;;;;;;;;;;;12.60;69.10;;;;;;2084267;28;733;-48
2020/12/07 03:11:24;;;;;;;;;;;12.60;69.00;;;;;;2086150;28;706;-48
2020/12/07 03:12:44;;;;;;;;;;;12.60;68.80;;;;;;2086465;28;737;-48
2020/12/07 03:14:06;;;;;;;;;;;12.60;68.80;;;;;;2078385;28;1366;-48
2020/12/07 03:15:26;;;;;;;;;;;12.60;68.90;;;;;;2082719;28;1539;-48
2020/12/07 03:16:45;;;;;;;;;;;12.60;68.90;;;;;;2086340;28;968;-48
2020/12/07 03:18:04;;;;;;;;;;;12.60;68.90;;;;;;2086243;28;1206;-48
2020/12/07 03:19:33;;;;;;;;;;;12.60;69.00;;;;;;2087536;28;730;-48
2020/12/07 03:20:52;;;;;;;;;;;12.60;69.80;;;;;;2081267;28;1972;-48
2020/12/07 03:22:11;;;;;;;;;;;12.60;69.00;;;;;;2081325;28;723;-49
2020/12/07 03:23:31;;;;;;;;;;;12.60;69.90;;;;;;2078285;28;1334;-49
2020/12/07 03:24:58;;;;;;;;;;;12.60;69.10;;;;;;2078656;28;725;-48
2020/12/07 03:26:17;;;;;;;;;;;12.60;69.10;;;;;;2069803;28;805;-48
2020/12/07 03:27:36;;;;;;;;;;;12.60;69.20;;;;;;2074583;28;730;-49
2020/12/07 03:28:57;;;;;;;;;;;12.60;69.30;;;;;;2080980;28;778;-49
2020/12/07 03:30:16;;;;;;;;;;;12.60;69.10;;;;;;2080834;28;722;-48
2020/12/07 03:31:38;;;;;;;;;;;12.60;69.10;;;;;;2081446;28;713;-49
2020/12/07 03:32:57;;;;;;;;;;;12.60;69.10;;;;;;2078017;28;739;-48
2020/12/07 03:34:18;;;;;;;;;;;12.60;69.20;;;;;;2076081;28;788;-48
2020/12/07 03:35:39;;;;;;;;;;;12.60;69.20;;;;;;2076068;28;787;-48
2020/12/07 03:37:00;;;;;;;;;;;12.50;69.10;;;;;;2067710;28;792;-48
2020/12/07 03:38:46;;;;;;;;;;;12.50;69.70;;;;;;2085121;28;750;-49
2020/12/07 03:40:05;;;;;;;;;;;12.60;69.10;;;;;;2081329;28;734;-49
2020/12/07 03:41:33;;;;;;;;;;;12.60;69.30;;;;;;2079076;28;1902;-49
2020/12/07 03:42:55;;;;;;;;;;;12.60;69.20;;;;;;2081089;28;816;-48
2020/12/07 03:44:14;;;;;;;;;;;12.50;69.10;;;;;;2080924;28;732;-48
2020/12/07 03:45:35;;;;;;;;;;;12.50;69.10;;;;;;2085734;28;734;-49
2020/12/07 03:46:55;;;;;;;;;;;12.60;69.30;;;;;;2091780;28;916;-48
2020/12/07 03:48:15;;;;;;;;;;;12.50;69.10;;;;;;2089496;28;1032;-48
2020/12/07 03:49:34;;;;;;;;;;;12.50;69.00;;;;;;2073806;28;1719;-48
2020/12/07 03:50:54;;;;;;;;;;;12.50;69.10;;;;;;2081395;28;878;-49
2020/12/07 03:52:15;;;;;;;;;;;12.50;69.00;;;;;;2086140;28;984;-49
2020/12/07 03:53:35;;;;;;;;;;;12.50;69.20;;;;;;2086054;28;1392;-48
2020/12/07 03:54:54;;;;;;;;;;;12.50;69.20;;;;;;2085441;28;973;-49
2020/12/07 03:56:13;;;;;;;;;;;12.50;69.20;;;;;;2094400;28;726;-49
2020/12/07 03:57:34;;;;;;;;;;;12.50;69.10;;;;;;2089457;28;780;-49
2020/12/07 03:58:54;;;;;;;;;;;12.50;69.20;;;;;;2081665;28;1525;-48
2020/12/07 04:00:15;;;;;;;;;;;12.50;70.10;;;;;;2078054;28;1274;-48
2020/12/07 04:01:42;;;;;;;;;;;12.50;69.30;;;;;;2078133;28;1313;-48
2020/12/07 04:03:08;;;;;;;;;;;12.50;69.10;;;;;;2076750;28;1094;-48
2020/12/07 04:04:43;;;;;;;;;;;12.50;69.30;;;;;;2085177;28;1039;-49
2020/12/07 04:07:30;;;;;;;;;;;12.50;69.40;;;;;;2081477;28;917;-48
2020/12/07 04:08:50;;;;;;;;;;;12.50;69.20;;;;;;2078426;28;1046;-48
2020/12/07 04:10:10;;;;;;;;;;;12.50;69.50;;;;;;2083972;28;1158;-49
2020/12/07 04:11:29;;;;;;;;;;;12.50;69.50;;;;;;2089695;28;924;-48
2020/12/07 04:12:48;;;;;;;;;;;12.50;69.10;;;;;;2084540;28;1037;-48
2020/12/07 04:14:07;;;;;;;;;;;12.50;69.30;;;;;;2084691;28;1806;-48
2020/12/07 04:15:27;;;;;;;;;;;12.50;69.50;;;;;;2086019;28;832;-49
2020/12/07 04:16:46;;;;;;;;;;;12.50;69.30;;;;;;2081830;28;985;-49
2020/12/07 04:18:05;;;;;;;;;;;12.50;69.50;;;;;;2085474;28;887;-48
2020/12/07 04:19:24;;;;;;;;;;;12.50;69.70;;;;;;2088926;28;883;-48
2020/12/07 04:20:44;;;;;;;;;;;12.40;69.50;;;;;;2085597;28;1906;-49
2020/12/07 04:22:03;;;;;;;;;;;12.50;69.50;;;;;;2085125;28;913;-46
2020/12/07 04:23:22;;;;;;;;;;;12.50;69.60;;;;;;2087155;28;1652;-48
2020/12/07 04:24:41;;;;;;;;;;;12.50;70.20;;;;;;2087099;28;1051;-48
2020/12/07 04:26:01;;;;;;;;;;;12.50;69.60;;;;;;2081979;28;1055;-48
2020/12/07 04:27:20;;;;;;;;;;;12.40;69.30;;;;;;2085812;28;1231;-48
2020/12/07 04:28:39;;;;;;;;;;;12.40;69.60;;;;;;2086568;28;1197;-48
2020/12/07 04:29:58;;;;;;;;;;;12.40;69.40;;;;;;2088195;28;1092;-48
2020/12/07 04:31:18;;;;;;;;;;;12.40;69.70;;;;;;2083227;28;1019;-48
2020/12/07 04:32:37;;;;;;;;;;;12.40;69.50;;;;;;2084141;28;1197;-48
2020/12/07 04:33:56;;;;;;;;;;;12.50;69.50;;;;;;2083176;28;1423;-48
2020/12/07 04:35:15;;;;;;;;;;;12.40;69.60;;;;;;2080597;28;1243;-48
2020/12/07 04:36:34;;;;;;;;;;;12.40;69.50;;;;;;2086602;28;1158;-48
2020/12/07 04:37:54;;;;;;;;;;;12.40;69.50;;;;;;2082220;28;1028;-49
2020/12/07 04:39:13;;;;;;;;;;;12.40;69.40;;;;;;2086346;28;1108;-49
2020/12/07 04:40:32;;;;;;;;;;;12.40;69.40;;;;;;2088360;28;1231;-48
2020/12/07 04:41:51;;;;;;;;;;;12.40;70.20;;;;;;2085369;28;1130;-49
2020/12/07 04:43:11;;;;;;;;;;;12.40;70.30;;;;;;2087880;28;1216;-48
2020/12/07 04:44:30;;;;;;;;;;;12.40;69.50;;;;;;2088593;28;1192;-49
2020/12/07 04:45:50;;;;;;;;;;;12.40;69.60;;;;;;2078588;28;1203;-48
2020/12/07 04:47:09;;;;;;;;;;;12.40;69.50;;;;;;2085975;28;1243;-49
2020/12/07 04:48:29;;;;;;;;;;;12.40;69.60;;;;;;2087049;28;1325;-49
2020/12/07 04:49:48;;;;;;;;;;;12.40;69.50;;;;;;2085185;28;1271;-48
2020/12/07 04:51:09;;;;;;;;;;;12.40;69.70;;;;;;2085550;28;1149;-49
2020/12/07 04:52:28;;;;;;;;;;;12.40;69.60;;;;;;2085494;28;1124;-48
2020/12/07 04:53:47;;;;;;;;;;;12.40;69.70;;;;;;2080454;28;1371;-49
2020/12/07 04:55:06;;;;;;;;;;;12.40;69.60;;;;;;2084477;28;1954;-48
2020/12/07 04:56:25;;;;;;;;;;;12.40;69.60;;;;;;2081197;28;904;-49
2020/12/07 04:57:44;;;;;;;;;;;12.40;70.30;;;;;;2088589;28;1102;-49
2020/12/07 04:59:04;;;;;;;;;;;12.40;70.50;;;;;;2084110;28;731;-51
2020/12/07 05:00:24;;;;;;;;;;;12.30;69.50;;;;;;2080409;28;762;-48
2020/12/07 05:01:43;;;;;;;;;;;12.30;69.40;;;;;;2080935;28;737;-48
2020/12/07 05:03:03;;;;;;;;;;;12.30;69.60;;;;;;2081370;28;732;-49
2020/12/07 05:04:22;;;;;;;;;;;12.30;69.60;;;;;;2080785;28;1072;-47
2020/12/07 05:05:41;;;;;;;;;;;12.30;69.50;;;;;;2080372;28;760;-49
2020/12/07 05:07:04;;;;;;;;;;;12.30;69.40;;;;;;2081229;28;1021;-49
2020/12/07 05:08:23;;;;;;;;;;;12.30;69.50;;;;;;2081387;28;734;-48
2020/12/07 05:09:42;;;;;;;;;;;12.40;70.50;;;;;;2083401;28;1834;-48
2020/12/07 05:11:02;;;;;;;;;;;12.40;70.40;;;;;;2089513;28;1148;-48
2020/12/07 05:12:25;;;;;;;;;;;12.30;70.40;;;;;;2089320;28;1004;-48
2020/12/07 05:13:48;;;;;;;;;;;12.40;69.90;;;;;;2089114;28;1389;-47
2020/12/07 05:15:11;;;;;;;;;;;12.30;69.80;;;;;;2088097;28;729;-48
2020/12/07 05:16:31;;;;;;;;;;;12.40;69.80;;;;;;2089253;28;752;-48
2020/12/07 05:17:54;;;;;;;;;;;12.30;69.90;;;;;;2088914;28;720;-48
2020/12/07 05:19:14;;;;;;;;;;;12.30;69.90;;;;;;2086435;28;722;-48
2020/12/07 05:20:33;;;;;;;;;;;12.30;69.80;;;;;;2089175;28;1115;-48
2020/12/07 05:21:52;;;;;;;;;;;12.40;69.90;;;;;;2087664;28;1429;-48
2020/12/07 05:23:15;;;;;;;;;;;12.30;69.70;;;;;;2088821;28;725;-48
2020/12/07 05:24:34;;;;;;;;;;;12.30;69.80;;;;;;2080770;28;758;-48
2020/12/07 05:25:53;;;;;;;;;;;12.30;69.70;;;;;;2082464;28;719;-49
2020/12/07 05:27:13;;;;;;;;;;;12.30;70.60;;;;;;2077310;28;768;-48
2020/12/07 05:28:34;;;;;;;;;;;12.30;69.60;;;;;;2081404;28;1905;-49
2020/12/07 05:30:07;;;;;;;;;;;12.30;69.60;;;;;;2088723;28;1024;-48
2020/12/07 05:31:27;;;;;;;;;;;12.30;69.90;;;;;;2087430;28;714;-48
2020/12/07 05:32:46;;;;;;;;;;;12.30;69.70;;;;;;2080606;28;828;-48
2020/12/07 05:34:06;;;;;;;;;;;12.30;69.70;;;;;;2077178;28;1385;-49
2020/12/07 05:35:25;;;;;;;;;;;12.30;69.80;;;;;;2080125;28;1043;-48
2020/12/07 05:36:44;;;;;;;;;;;12.30;70.10;;;;;;2081169;28;715;-48
2020/12/07 05:38:04;;;;;;;;;;;12.30;69.80;;;;;;2080562;28;755;-48
2020/12/07 05:39:25;;;;;;;;;;;12.30;70.10;;;;;;2080724;28;751;-49
2020/12/07 05:40:44;;;;;;;;;;;12.30;70.60;;;;;;2081160;28;1898;-48
2020/12/07 05:42:03;;;;;;;;;;;12.30;70.10;;;;;;2080450;28;755;-48
2020/12/07 05:43:23;;;;;;;;;;;12.30;69.80;;;;;;2078091;28;1350;-49
2020/12/07 05:44:42;;;;;;;;;;;12.30;69.90;;;;;;2070363;28;728;-49
2020/12/07 05:46:01;;;;;;;;;;;12.30;70.10;;;;;;2075501;28;824;-48
2020/12/07 05:47:21;;;;;;;;;;;12.30;70.00;;;;;;2079146;28;737;-49
2020/12/07 05:48:40;;;;;;;;;;;12.20;69.80;;;;;;2079235;28;730;-49
2020/12/07 05:50:01;;;;;;;;;;;12.30;70.10;;;;;;2078842;28;729;-48
2020/12/07 05:51:25;;;;;;;;;;;12.20;69.80;;;;;;2078773;28;786;-49
2020/12/07 05:52:45;;;;;;;;;;;12.30;70.10;;;;;;2081619;28;730;-48
2020/12/07 05:54:05;;;;;;;;;;;12.30;70.00;;;;;;2081268;28;1475;-48
2020/12/07 05:55:24;;;;;;;;;;;12.30;70.30;;;;;;2077530;28;796;-49
2020/12/07 05:56:43;;;;;;;;;;;12.20;70.00;;;;;;2081682;28;748;-48
2020/12/07 05:58:03;;;;;;;;;;;12.30;70.70;;;;;;2082131;28;923;-48
2020/12/07 05:59:25;;;;;;;;;;;12.30;70.10;;;;;;2089938;28;1226;-48
2020/12/07 06:00:45;;;;;;;;;;;12.20;69.90;;;;;;2076057;28;1034;-49
2020/12/07 06:02:04;;;;;;;;;;;12.30;70.00;;;;;;2082943;28;945;-49
2020/12/07 06:03:23;;;;;;;;;;;12.20;70.70;;;;;;2090176;28;1481;-48
2020/12/07 06:04:42;;;;;;;;;;;12.30;70.00;;;;;;2089024;28;753;-48
2020/12/07 06:06:01;;;;;;;;;;;12.20;69.80;;;;;;2090038;28;715;-48
2020/12/07 06:07:23;;;;;;;;;;;12.20;70.00;;;;;;2089629;28;775;-48
2020/12/07 06:08:42;;;;;;;;;;;12.20;69.90;;;;;;2086559;28;999;-48
2020/12/07 06:10:02;;;;;;;;;;;12.20;70.10;;;;;;2086596;28;715;-49
2020/12/07 06:11:21;;;;;;;;;;;12.20;69.80;;;;;;2086474;28;719;-49
2020/12/07 06:12:40;;;;;;;;;;;12.20;70.00;;;;;;2086236;28;760;-48
2020/12/07 06:14:00;;;;;;;;;;;12.20;70.20;;;;;;2085859;28;1357;-48
2020/12/07 06:15:19;;;;;;;;;;;12.20;70.20;;;;;;2088554;28;733;-48
2020/12/07 06:16:38;;;;;;;;;;;12.20;70.60;;;;;;2089333;28;765;-48
2020/12/07 06:17:57;;;;;;;;;;;12.20;70.60;;;;;;2089963;28;672;-51
2020/12/07 06:19:16;;;;;;;;;;;12.20;70.70;;;;;;2089656;28;744;-49
2020/12/07 06:20:38;;;;;;;;;;;12.20;70.10;;;;;;2090104;28;756;-48
2020/12/07 06:21:58;;;;;;;;;;;12.20;69.80;;;;;;2090326;28;707;-49
2020/12/07 06:23:18;;;;;;;;;;;12.20;69.80;;;;;;2089558;28;1468;-52
2020/12/07 06:24:41;;;;;;;;;;;12.20;70.00;;;;;;2090023;28;708;-51
2020/12/07 06:26:00;;;;;;;;;;;12.20;70.00;;;;;;2089534;28;732;-49
2020/12/07 06:27:19;;;;;;;;;;;12.20;70.50;;;;;;2086364;28;738;-51
2020/12/07 06:28:39;;;;;;;;;;;12.20;70.70;;;;;;2089914;28;830;-49
2020/12/07 06:30:05;;;;;;;;;;;12.20;70.20;;;;;;2089872;28;1024;-50
2020/12/07 06:31:25;;;;;;;;;;;12.20;70.10;;;;;;2089542;28;1062;-50
2020/12/07 06:32:54;;;;;;;;;;;12.20;70.10;;;;;;2089936;28;696;-51
2020/12/07 06:34:13;;;;;;;;;;;12.20;70.10;;;;;;2090172;28;766;-49
2020/12/07 06:35:39;;;;;;;;;;;12.20;70.10;;;;;;2088834;28;766;-50
2020/12/07 06:36:58;;;;;;;;;;;12.10;70.10;;;;;;2086644;28;1263;-49
2020/12/07 06:38:17;;;;;;;;;;;12.10;70.70;;;;;;2086355;28;744;-50
2020/12/07 06:39:43;;;;;;;;;;;12.10;70.20;;;;;;2078105;28;743;-50
2020/12/07 06:41:02;;;;;;;;;;;12.10;70.00;;;;;;2084867;28;1906;-49
2020/12/07 06:42:22;;;;;;;;;;;12.10;70.10;;;;;;2089574;28;726;-53
2020/12/07 06:43:41;;;;;;;;;;;12.20;70.30;;;;;;2081028;28;1594;-51
2020/12/07 06:45:00;;;;;;;;;;;12.10;70.30;;;;;;2086124;28;760;-51
2020/12/07 06:46:39;;;;;;;;;;;12.10;70.20;;;;;;2089958;28;713;-49
2020/12/07 06:48:12;;;;;;;;;;;12.10;71.00;;;;;;2089219;28;725;-49
2020/12/07 06:50:05;;;;;;;;;;;12.20;70.30;;;;;;2089670;28;710;-51
2020/12/07 06:51:33;;;;;;;;;;;12.10;70.30;;;;;;2089459;28;705;-51
2020/12/07 06:52:52;;;;;;;;;;;12.20;71.20;;;;;;2089740;28;809;-50
2020/12/07 06:55:54;;;;;;;;;;;12.10;70.00;;;;;;2089195;28;733;-53
2020/12/07 06:57:20;;;;;;;;;;;12.10;70.20;;;;;;2088608;28;712;-48
2020/12/07 06:58:39;;;;;;;;;;;12.10;70.20;;;;;;2085716;28;949;-49
2020/12/07 07:00:00;;;;;;;;;;;12.10;70.50;;;;;;2089250;28;1040;-50
2020/12/07 07:01:19;;;;;;;;;;;12.10;70.40;;;;;;2084461;28;1969;-49
2020/12/07 07:02:39;;;;;;;;;;;12.10;70.20;;;;;;2081368;28;729;-52
2020/12/07 07:03:58;;;;;;;;;;;12.10;70.20;;;;;;2081539;28;1365;-50
2020/12/07 07:05:19;;;;;;;;;;;12.10;70.50;;;;;;2081151;28;825;-49
2020/12/07 07:06:38;;;;;;;;;;;12.10;70.40;;;;;;2081476;28;779;-50
2020/12/07 07:07:57;;;;;;;;;;;12.10;70.30;;;;;;2081654;28;725;-49
2020/12/07 07:09:16;;;;;;;;;;;12.10;70.10;;;;;;2080997;28;718;-49
2020/12/07 07:10:35;;;;;;;;;;;12.10;70.50;;;;;;2077814;28;754;-50
2020/12/07 07:11:55;;;;;;;;;;;12.10;70.40;;;;;;2081496;28;710;-51
2020/12/07 07:13:14;;;;;;;;;;;12.10;70.40;;;;;;2081027;28;1369;-50
2020/12/07 07:14:33;;;;;;;;;;;12.10;70.50;;;;;;2077762;28;697;-49
2020/12/07 07:15:53;;;;;;;;;;;12.10;70.20;;;;;;2077575;28;731;-50
2020/12/07 07:17:12;;;;;;;;;;;12.10;71.20;;;;;;2077830;28;734;-49
2020/12/07 07:18:31;;;;;;;;;;;12.10;70.40;;;;;;2081448;28;735;-49
2020/12/07 07:19:50;;;;;;;;;;;12.10;70.40;;;;;;2081633;28;800;-50
2020/12/07 07:21:10;;;;;;;;;;;12.10;70.50;;;;;;2081218;28;1914;-49
2020/12/07 07:22:29;;;;;;;;;;;12.10;70.30;;;;;;2084072;28;1235;-50
2020/12/07 07:23:48;;;;;;;;;;;12.10;70.40;;;;;;2080930;28;1457;-48
2020/12/07 07:26:36;;;;;;;;;;;12.10;70.40;;;;;;2078491;28;708;-51
2020/12/07 07:29:17;;;;;;;;;;;12.10;70.50;;;;;;2089014;28;1009;-52
2020/12/07 07:30:37;;;;;;;;;;;12.10;70.40;;;;;;2079525;28;1016;-52
2020/12/07 07:31:56;;;;;;;;;;;12.10;70.40;;;;;;2087733;28;745;-50
2020/12/07 07:33:15;;;;;;;;;;;12.00;70.50;;;;;;2085532;28;1377;-50
2020/12/07 07:34:34;;;;;;;;;;;12.10;70.50;;;;;;2086263;28;760;-52
2020/12/07 07:35:54;;;;;;;;;;;12.10;70.60;;;;;;2086904;28;717;-49
2020/12/07 07:37:13;;;;;;;;;;;12.10;70.40;;;;;;2086345;28;722;-49
2020/12/07 07:38:35;;;;;;;;;;;12.10;70.60;;;;;;2077830;28;1028;-54
2020/12/07 07:40:02;;;;;;;;;;;12.10;70.50;;;;;;2084462;28;732;-50
2020/12/07 07:41:25;;;;;;;;;;;12.00;70.40;;;;;;2087305;28;1975;-49
2020/12/07 07:42:45;;;;;;;;;;;12.00;70.70;;;;;;2087474;28;778;-49
2020/12/07 07:44:04;;;;;;;;;;;12.00;70.70;;;;;;2085824;28;1381;-50
2020/12/07 07:45:24;;;;;;;;;;;12.10;70.70;;;;;;2089327;28;932;-50
2020/12/07 07:46:45;;;;;;;;;;;12.00;70.60;;;;;;2089357;28;791;-49
2020/12/07 07:49:48;;;;;;;;;;;12.00;70.40;;;;;;2089585;28;801;-48
2020/12/07 07:52:00;;;;;;;;;;;12.00;70.50;;;;;;2081131;28;764;-51
2020/12/07 07:59:16;;;;;;;;;;;12.00;70.70;;;;;;2089301;28;1002;-49
2020/12/07 08:05:57;;;;;;;;;;;12.00;71.40;;;;;;2081170;28;734;-49
2020/12/07 08:08:13;;;;;;;;;;;12.00;71.20;;;;;;2055253;28;767;-50
2020/12/07 08:16:57;;;;;;;;;;;12.00;71.50;;;;;;2081645;28;719;-50
2020/12/07 08:18:19;;;;;;;;;;;12.00;70.60;;;;;;2080892;28;776;-49
2020/12/07 08:19:39;;;;;;;;;;;12.00;70.60;;;;;;2078543;28;754;-49
2020/12/07 08:21:02;;;;;;;;;;;12.00;71.00;;;;;;2081417;28;1974;-49
2020/12/07 08:22:21;;;;;;;;;;;12.00;70.80;;;;;;2089435;28;734;-50
2020/12/07 08:23:43;;;;;;;;;;;12.00;70.70;;;;;;2084524;28;1467;-50
2020/12/07 08:25:04;;;;;;;;;;;12.00;70.80;;;;;;2081144;28;755;-49
2020/12/07 08:26:24;;;;;;;;;;;12.00;70.80;;;;;;2081735;28;726;-50
2020/12/07 08:27:43;;;;;;;;;;;11.90;70.50;;;;;;2081814;28;730;-50
2020/12/07 08:29:05;;;;;;;;;;;11.90;70.90;;;;;;2094289;28;1320;-50